Time;durP1;ratioP1;P1;durP2;ratioP2;P2;SDS_P1;SDS_P2;PMS_P1;PMS_P2;Temp;Humidity;BMP_temperature;BMP_pressure;BME280_temperature;BME280_humidity;BME280_pressure;Samples;Min_cycle;Max_cycle;Signal;HPM_P1;HPM_P2
2021/08/07 00:00:10;;;;;;;3.83;3.50;;;;;;;;;;5009301;28;24396;-51
2021/08/07 00:02:35;;;;;;;3.90;3.60;;;;;;;;;;5009287;28;24405;-51
2021/08/07 00:05:01;;;;;;;4.20;3.90;;;;;;;;;;4993342;28;25008;-51
2021/08/07 00:07:27;;;;;;;3.80;3.50;;;;;;;;;;4984091;28;24425;-52
2021/08/07 00:09:53;;;;;;;3.90;3.60;;;;;;;;;;4981610;28;24432;-51
2021/08/07 00:12:18;;;;;;;3.57;3.37;;;;;;;;;;4972275;28;24428;-52
2021/08/07 00:14:43;;;;;;;3.70;3.40;;;;;;;;;;4987330;28;24427;-51
2021/08/07 00:17:08;;;;;;;4.32;3.40;;;;;;;;;;4987378;28;24422;-51
2021/08/07 00:19:34;;;;;;;3.50;3.30;;;;;;;;;;4988830;28;24420;-52
2021/08/07 00:22:00;;;;;;;3.85;3.55;;;;;;;;;;4989602;28;24389;-51
2021/08/07 00:24:25;;;;;;;3.80;3.40;;;;;;;;;;4988423;28;24973;-50
2021/08/07 00:26:50;;;;;;;3.80;3.50;;;;;;;;;;4989540;28;24389;-50
2021/08/07 00:29:15;;;;;;;3.10;2.90;;;;;;;;;;4988773;28;24567;-51
2021/08/07 00:31:42;;;;;;;3.70;3.40;;;;;;;;;;4981600;28;25261;-50
2021/08/07 00:34:07;;;;;;;3.80;3.50;;;;;;;;;;4987538;28;24788;-51
2021/08/07 00:36:32;;;;;;;3.78;3.47;;;;;;;;;;4988385;28;24396;-51
2021/08/07 00:38:58;;;;;;;3.70;3.40;;;;;;;;;;4988730;28;24385;-50
2021/08/07 00:41:23;;;;;;;3.80;3.50;;;;;;;;;;4988062;28;24479;-51
2021/08/07 00:43:48;;;;;;;3.47;3.27;;;;;;;;;;4988612;28;24416;-52
2021/08/07 00:46:13;;;;;;;3.80;3.50;;;;;;;;;;4988427;28;24487;-51
2021/08/07 00:48:38;;;;;;;3.60;3.30;;;;;;;;;;4988383;28;24484;-52
2021/08/07 00:51:03;;;;;;;3.60;3.30;;;;;;;;;;4988404;28;24397;-50
2021/08/07 00:53:29;;;;;;;3.50;3.30;;;;;;;;;;4988655;28;24456;-51
2021/08/07 00:55:54;;;;;;;3.20;2.90;;;;;;;;;;4987720;28;24416;-50
2021/08/07 00:58:20;;;;;;;3.60;3.30;;;;;;;;;;4988138;28;24986;-51
2021/08/07 01:00:45;;;;;;;3.60;2.90;;;;;;;;;;4988708;28;24452;-51
2021/08/07 01:03:32;;;;;;;3.00;2.80;;;;;;;;;;4987887;28;24431;-51
2021/08/07 01:06:06;;;;;;;3.25;3.05;;;;;;;;;;4984447;28;24521;-50
2021/08/07 01:08:36;;;;;;;3.38;3.08;;;;;;;;;;4988107;28;24990;-51
2021/08/07 01:11:25;;;;;;;3.20;2.90;;;;;;;;;;4988530;28;24405;-52
2021/08/07 01:13:53;;;;;;;2.80;2.60;;;;;;;;;;4987944;28;24552;-51
2021/08/07 01:16:27;;;;;;;3.20;3.00;;;;;;;;;;4988162;28;24447;-51
2021/08/07 01:18:53;;;;;;;3.00;2.80;;;;;;;;;;4988146;28;24492;-50
2021/08/07 01:21:20;;;;;;;3.40;3.20;;;;;;;;;;4988031;28;24563;-51
2021/08/07 01:24:02;;;;;;;2.90;2.70;;;;;;;;;;4988714;28;24395;-51
2021/08/07 01:26:33;;;;;;;3.15;2.95;;;;;;;;;;4987472;28;24495;-52
2021/08/07 01:28:59;;;;;;;3.00;2.80;;;;;;;;;;4987632;28;24981;-51
2021/08/07 01:31:24;;;;;;;2.60;2.40;;;;;;;;;;4988434;28;24381;-51
2021/08/07 01:33:50;;;;;;;2.80;2.60;;;;;;;;;;4987899;28;24405;-50
2021/08/07 01:36:16;;;;;;;2.83;2.63;;;;;;;;;;4987290;28;24401;-50
2021/08/07 01:38:44;;;;;;;2.83;2.70;;;;;;;;;;4987470;28;24420;-51
2021/08/07 01:41:14;;;;;;;2.97;2.78;;;;;;;;;;4988086;28;24954;-52
2021/08/07 01:43:39;;;;;;;2.83;2.63;;;;;;;;;;4988366;28;24608;-52
2021/08/07 01:46:04;;;;;;;2.80;2.60;;;;;;;;;;4987922;28;24537;-51
2021/08/07 01:48:32;;;;;;;3.10;2.90;;;;;;;;;;4987686;28;25336;-51
2021/08/07 01:51:04;;;;;;;3.00;2.80;;;;;;;;;;4987598;28;24409;-51
2021/08/07 01:53:30;;;;;;;3.70;3.40;;;;;;;;;;4987804;28;24432;-51
2021/08/07 01:55:58;;;;;;;3.00;2.80;;;;;;;;;;4987931;28;24734;-52
2021/08/07 01:58:24;;;;;;;3.30;3.00;;;;;;;;;;4988044;28;24973;-51
2021/08/07 02:00:49;;;;;;;3.15;2.95;;;;;;;;;;4987656;28;24428;-51
2021/08/07 02:03:15;;;;;;;3.20;3.00;;;;;;;;;;4987858;28;24496;-51
2021/08/07 02:05:41;;;;;;;2.80;2.50;;;;;;;;;;4987213;28;24455;-51
2021/08/07 02:08:08;;;;;;;3.28;2.97;;;;;;;;;;4987993;28;24408;-51
2021/08/07 02:10:33;;;;;;;3.28;2.97;;;;;;;;;;4987329;28;24520;-51
2021/08/07 02:12:59;;;;;;;3.40;3.10;;;;;;;;;;4988244;28;24891;-52
2021/08/07 02:15:24;;;;;;;3.00;2.80;;;;;;;;;;4992009;28;24500;-51
2021/08/07 02:17:50;;;;;;;3.10;2.90;;;;;;;;;;5007725;28;24503;-51
2021/08/07 02:20:16;;;;;;;3.28;2.90;;;;;;;;;;5004720;28;24404;-51
2021/08/07 02:22:42;;;;;;;3.13;2.83;;;;;;;;;;4987742;28;25103;-51
2021/08/07 02:25:07;;;;;;;3.15;2.90;;;;;;;;;;4988024;28;24401;-51
2021/08/07 02:27:33;;;;;;;3.30;3.10;;;;;;;;;;4987807;28;24400;-52
2021/08/07 02:29:58;;;;;;;3.00;2.80;;;;;;;;;;4987865;28;24776;-51
2021/08/07 02:32:24;;;;;;;3.00;2.80;;;;;;;;;;4987011;28;24424;-52
2021/08/07 02:34:49;;;;;;;2.97;2.67;;;;;;;;;;4987366;28;24588;-51
2021/08/07 02:37:14;;;;;;;3.10;2.90;;;;;;;;;;4987756;28;24409;-51
2021/08/07 02:39:40;;;;;;;2.80;2.60;;;;;;;;;;4987321;28;24412;-50
2021/08/07 02:42:05;;;;;;;2.70;2.50;;;;;;;;;;4987016;28;24524;-51
2021/08/07 02:44:31;;;;;;;3.10;2.90;;;;;;;;;;4987046;28;25047;-51
2021/08/07 02:46:56;;;;;;;3.40;2.77;;;;;;;;;;4989410;28;24466;-51
2021/08/07 02:49:22;;;;;;;2.93;2.73;;;;;;;;;;4991150;28;24528;-50
2021/08/07 02:51:49;;;;;;;3.10;2.90;;;;;;;;;;4990607;28;24776;-50
2021/08/07 02:54:14;;;;;;;2.53;2.33;;;;;;;;;;4990846;28;24444;-50
2021/08/07 02:56:40;;;;;;;3.00;2.80;;;;;;;;;;4983603;28;24410;-50
2021/08/07 02:59:05;;;;;;;2.90;2.70;;;;;;;;;;4971650;28;24406;-50
2021/08/07 03:01:30;;;;;;;2.80;2.60;;;;;;;;;;4980332;28;24496;-50
2021/08/07 03:03:55;;;;;;;2.72;2.53;;;;;;;;;;4990566;28;24416;-50
2021/08/07 03:06:23;;;;;;;2.72;2.53;;;;;;;;;;4991015;28;24393;-51
2021/08/07 03:08:48;;;;;;;2.72;2.53;;;;;;;;;;4990557;28;24432;-51
2021/08/07 03:11:13;;;;;;;2.67;2.47;;;;;;;;;;4990895;28;24388;-52
2021/08/07 03:13:38;;;;;;;2.40;2.30;;;;;;;;;;4989908;28;24428;-51
2021/08/07 03:16:03;;;;;;;2.60;2.40;;;;;;;;;;4990389;28;24721;-51
2021/08/07 03:18:29;;;;;;;2.47;2.37;;;;;;;;;;4990592;28;24473;-52
2021/08/07 03:20:57;;;;;;;2.80;2.40;;;;;;;;;;4990466;28;24496;-51
2021/08/07 03:23:22;;;;;;;2.90;2.70;;;;;;;;;;4990128;28;24440;-51
2021/08/07 03:25:47;;;;;;;2.60;2.40;;;;;;;;;;4990452;28;24447;-51
2021/08/07 03:28:12;;;;;;;3.60;3.40;;;;;;;;;;4990539;28;24407;-51
2021/08/07 03:30:37;;;;;;;3.60;3.40;;;;;;;;;;4990179;28;24760;-51
2021/08/07 03:33:02;;;;;;;7.40;3.40;;;;;;;;;;4990793;28;24393;-51
2021/08/07 03:35:28;;;;;;;2.90;2.70;;;;;;;;;;4989912;28;24432;-51
2021/08/07 03:37:53;;;;;;;3.80;3.08;;;;;;;;;;4990065;28;24897;-52
2021/08/07 03:40:18;;;;;;;3.00;2.80;;;;;;;;;;4990295;28;24381;-50
2021/08/07 03:42:44;;;;;;;3.00;2.50;;;;;;;;;;4990017;28;25006;-51
2021/08/07 03:45:09;;;;;;;2.60;2.40;;;;;;;;;;4986839;28;24499;-51
2021/08/07 03:47:45;;;;;;;2.80;2.60;;;;;;;;;;4989792;28;24415;-51
2021/08/07 03:50:10;;;;;;;2.50;2.40;;;;;;;;;;4988279;28;25474;-51
2021/08/07 03:52:35;;;;;;;2.50;2.40;;;;;;;;;;4989776;28;24433;-50
2021/08/07 03:55:01;;;;;;;2.90;2.50;;;;;;;;;;4989835;28;24788;-50
2021/08/07 03:57:26;;;;;;;2.72;2.30;;;;;;;;;;4989547;28;24447;-50
2021/08/07 03:59:51;;;;;;;2.70;2.50;;;;;;;;;;4989182;28;24511;-51
2021/08/07 04:02:16;;;;;;;2.60;2.40;;;;;;;;;;4990002;28;24975;-50
2021/08/07 04:04:41;;;;;;;2.90;2.70;;;;;;;;;;4989867;28;24460;-50
2021/08/07 04:07:06;;;;;;;2.78;2.58;;;;;;;;;;4989268;28;24456;-50
2021/08/07 04:09:31;;;;;;;3.08;2.40;;;;;;;;;;4989488;28;24938;-50
2021/08/07 04:11:57;;;;;;;2.90;2.70;;;;;;;;;;4989758;28;24440;-50
2021/08/07 04:14:22;;;;;;;2.80;2.60;;;;;;;;;;4988977;28;24459;-51
2021/08/07 04:16:47;;;;;;;2.88;2.67;;;;;;;;;;4984817;28;24471;-51
2021/08/07 04:19:12;;;;;;;3.00;2.20;;;;;;;;;;4988623;28;24449;-50
2021/08/07 04:21:37;;;;;;;2.30;2.20;;;;;;;;;;4988801;28;24420;-51
2021/08/07 04:24:02;;;;;;;2.40;2.30;;;;;;;;;;4988600;28;24495;-51
2021/08/07 04:26:28;;;;;;;2.50;2.30;;;;;;;;;;4988038;28;24440;-51
2021/08/07 04:28:53;;;;;;;2.40;2.20;;;;;;;;;;4988472;28;24765;-51
2021/08/07 04:31:18;;;;;;;1.90;1.80;;;;;;;;;;4988860;28;24413;-52
2021/08/07 04:33:43;;;;;;;2.80;1.50;;;;;;;;;;4988279;28;24417;-51
2021/08/07 04:36:08;;;;;;;2.00;1.80;;;;;;;;;;4988553;28;24944;-51
2021/08/07 04:38:33;;;;;;;2.10;1.80;;;;;;;;;;4988217;28;24448;-52
2021/08/07 04:40:58;;;;;;;2.13;1.83;;;;;;;;;;4988560;28;24488;-51
2021/08/07 04:43:24;;;;;;;2.10;2.00;;;;;;;;;;4988274;28;24424;-51
2021/08/07 04:45:49;;;;;;;2.10;1.80;;;;;;;;;;4987845;28;24428;-51
2021/08/07 04:48:14;;;;;;;2.07;1.87;;;;;;;;;;4988688;28;25053;-52
2021/08/07 04:50:39;;;;;;;1.70;1.60;;;;;;;;;;4988226;28;24412;-52
2021/08/07 04:53:05;;;;;;;2.00;1.90;;;;;;;;;;4988316;28;24532;-52
2021/08/07 04:55:30;;;;;;;2.10;1.90;;;;;;;;;;4988444;28;24499;-52
2021/08/07 04:57:56;;;;;;;1.70;1.60;;;;;;;;;;4986480;28;24944;-51
2021/08/07 05:00:21;;;;;;;1.80;1.70;;;;;;;;;;4988502;28;24412;-52
2021/08/07 05:02:47;;;;;;;1.80;1.50;;;;;;;;;;4989056;28;24447;-52
2021/08/07 05:05:13;;;;;;;1.90;1.80;;;;;;;;;;4982759;28;24425;-52
2021/08/07 05:07:39;;;;;;;3.40;1.50;;;;;;;;;;4987518;28;24410;-52
2021/08/07 05:10:05;;;;;;;1.40;1.30;;;;;;;;;;4981288;28;24440;-52
2021/08/07 05:12:31;;;;;;;1.77;1.50;;;;;;;;;;4970259;28;24496;-52
2021/08/07 05:14:56;;;;;;;1.50;1.40;;;;;;;;;;4979558;28;24571;-52
2021/08/07 05:17:22;;;;;;;1.70;1.60;;;;;;;;;;4988275;28;24433;-51
2021/08/07 05:19:47;;;;;;;2.20;1.53;;;;;;;;;;4973746;28;24433;-51
2021/08/07 05:22:12;;;;;;;1.60;1.50;;;;;;;;;;4986285;28;24421;-49
2021/08/07 05:24:38;;;;;;;1.80;1.60;;;;;;;;;;4987987;28;24413;-50
2021/08/07 05:27:03;;;;;;;3.10;2.00;;;;;;;;;;4987178;28;24460;-49
2021/08/07 05:29:28;;;;;;;3.80;1.90;;;;;;;;;;4987128;28;24823;-50
2021/08/07 05:31:53;;;;;;;2.20;1.90;;;;;;;;;;4987508;28;24501;-50
2021/08/07 05:34:18;;;;;;;2.15;1.70;;;;;;;;;;4987704;28;24488;-50
2021/08/07 05:36:43;;;;;;;2.90;2.00;;;;;;;;;;4987220;28;24425;-50
2021/08/07 05:39:08;;;;;;;3.80;2.10;;;;;;;;;;4987319;28;24523;-51
2021/08/07 05:41:34;;;;;;;1.50;1.40;;;;;;;;;;4978929;28;25044;-51
2021/08/07 05:43:59;;;;;;;2.30;1.40;;;;;;;;;;4982657;28;24421;-51
2021/08/07 05:46:24;;;;;;;1.67;1.40;;;;;;;;;;4981687;28;24448;-51
2021/08/07 05:48:54;;;;;;;1.60;1.20;;;;;;;;;;4987512;28;24413;-51
2021/08/07 05:51:19;;;;;;;1.30;1.20;;;;;;;;;;4982436;28;24418;-50
2021/08/07 05:53:44;;;;;;;1.43;1.20;;;;;;;;;;4987186;28;24491;-50
2021/08/07 05:56:09;;;;;;;1.80;1.20;;;;;;;;;;4976990;28;24437;-50
2021/08/07 05:58:37;;;;;;;1.40;1.15;;;;;;;;;;4983014;28;24479;-51
2021/08/07 06:01:02;;;;;;;1.40;1.30;;;;;;;;;;4986764;28;25104;-51
2021/08/07 06:03:28;;;;;;;1.50;1.30;;;;;;;;;;4985442;28;24437;-50
2021/08/07 06:05:53;;;;;;;1.25;1.10;;;;;;;;;;4986560;28;24432;-50
2021/08/07 06:08:18;;;;;;;1.20;1.10;;;;;;;;;;4985353;28;24827;-50
2021/08/07 06:10:43;;;;;;;1.40;1.30;;;;;;;;;;4984017;28;24436;-51
2021/08/07 06:13:08;;;;;;;1.30;1.20;;;;;;;;;;4985534;28;24947;-50
2021/08/07 06:15:33;;;;;;;1.60;1.20;;;;;;;;;;4981403;28;24522;-50
2021/08/07 06:18:00;;;;;;;1.20;1.10;;;;;;;;;;4984246;28;24417;-49
2021/08/07 06:20:26;;;;;;;1.20;1.10;;;;;;;;;;4980419;28;25006;-50
2021/08/07 06:22:51;;;;;;;1.30;1.20;;;;;;;;;;4985005;28;24532;-49
2021/08/07 06:25:16;;;;;;;1.40;1.30;;;;;;;;;;4986517;28;24468;-49
2021/08/07 06:27:41;;;;;;;1.10;1.00;;;;;;;;;;4982723;28;24567;-49
2021/08/07 06:30:07;;;;;;;1.42;1.15;;;;;;;;;;4989801;28;24479;-49
2021/08/07 06:32:32;;;;;;;1.23;1.13;;;;;;;;;;4990277;28;24489;-50
2021/08/07 06:34:57;;;;;;;1.38;1.10;;;;;;;;;;4987742;28;24819;-49
2021/08/07 06:37:22;;;;;;;1.40;1.30;;;;;;;;;;4987348;28;24432;-49
2021/08/07 06:39:47;;;;;;;1.20;1.10;;;;;;;;;;4989008;28;24428;-49
2021/08/07 06:42:12;;;;;;;1.20;1.10;;;;;;;;;;4990190;28;24578;-49
2021/08/07 06:44:37;;;;;;;1.37;1.20;;;;;;;;;;4986211;28;24725;-50
2021/08/07 06:47:03;;;;;;;1.10;1.00;;;;;;;;;;4988678;28;24451;-49
2021/08/07 06:49:28;;;;;;;1.30;0.97;;;;;;;;;;4988972;28;24458;-49
2021/08/07 06:51:53;;;;;;;1.10;1.00;;;;;;;;;;4984082;28;24490;-49
2021/08/07 06:54:18;;;;;;;1.90;1.10;;;;;;;;;;4987890;28;24475;-50
2021/08/07 06:56:48;;;;;;;1.10;1.00;;;;;;;;;;4982850;28;24406;-50
2021/08/07 06:59:13;;;;;;;1.20;1.10;;;;;;;;;;4989752;28;24482;-50
2021/08/07 07:01:38;;;;;;;1.30;1.20;;;;;;;;;;4990876;28;25038;-49
2021/08/07 07:04:03;;;;;;;1.40;1.30;;;;;;;;;;4989101;28;24448;-49
2021/08/07 07:06:28;;;;;;;1.80;1.30;;;;;;;;;;4985135;28;24432;-49
2021/08/07 07:08:54;;;;;;;1.50;1.20;;;;;;;;;;4985387;28;25021;-50
2021/08/07 07:11:19;;;;;;;1.60;1.40;;;;;;;;;;4980925;28;24592;-52
2021/08/07 07:13:45;;;;;;;1.10;1.00;;;;;;;;;;4980850;28;24967;-49
2021/08/07 07:16:11;;;;;;;1.80;1.30;;;;;;;;;;4983938;28;24408;-48
2021/08/07 07:18:36;;;;;;;1.30;1.00;;;;;;;;;;4986457;28;24790;-48
2021/08/07 07:21:01;;;;;;;1.70;1.10;;;;;;;;;;4989672;28;24576;-50
2021/08/07 07:23:26;;;;;;;1.50;1.20;;;;;;;;;;4990279;28;24521;-49
2021/08/07 07:25:52;;;;;;;1.30;1.00;;;;;;;;;;4987057;28;24428;-50
2021/08/07 07:28:17;;;;;;;1.40;1.10;;;;;;;;;;4990095;28;24504;-50
2021/08/07 07:30:43;;;;;;;0.90;0.90;;;;;;;;;;4990170;28;24444;-50
2021/08/07 07:33:08;;;;;;;1.20;1.00;;;;;;;;;;4989437;28;24420;-50
2021/08/07 07:35:33;;;;;;;1.30;1.00;;;;;;;;;;4989646;28;24998;-50
2021/08/07 07:37:58;;;;;;;1.40;1.30;;;;;;;;;;4988322;28;24412;-48
2021/08/07 07:40:23;;;;;;;3.40;1.40;;;;;;;;;;4989238;28;24421;-49
2021/08/07 07:42:48;;;;;;;2.25;1.30;;;;;;;;;;4987593;28;24455;-49
2021/08/07 07:45:14;;;;;;;1.70;1.20;;;;;;;;;;4988892;28;24995;-48
2021/08/07 07:47:39;;;;;;;1.20;1.10;;;;;;;;;;4989585;28;24401;-48
2021/08/07 07:50:04;;;;;;;1.20;1.10;;;;;;;;;;4989155;28;24421;-48
2021/08/07 07:52:30;;;;;;;1.10;1.10;;;;;;;;;;4989518;28;25207;-48
2021/08/07 07:54:55;;;;;;;1.17;1.10;;;;;;;;;;4987797;28;24796;-48
2021/08/07 07:57:20;;;;;;;1.30;1.20;;;;;;;;;;4989431;28;24397;-48
2021/08/07 07:59:46;;;;;;;1.40;1.30;;;;;;;;;;4989143;28;24947;-49
2021/08/07 08:02:11;;;;;;;1.10;1.10;;;;;;;;;;4989218;28;24393;-49
2021/08/07 08:04:36;;;;;;;1.30;1.20;;;;;;;;;;4989771;28;24817;-49
2021/08/07 08:07:01;;;;;;;2.00;1.10;;;;;;;;;;4988224;28;25010;-48
2021/08/07 08:09:27;;;;;;;1.20;1.10;;;;;;;;;;4989159;28;24966;-49
2021/08/07 08:11:52;;;;;;;1.00;1.00;;;;;;;;;;4988615;28;24401;-49
2021/08/07 08:14:17;;;;;;;1.40;1.10;;;;;;;;;;4989237;28;24408;-50
2021/08/07 08:16:45;;;;;;;1.30;1.20;;;;;;;;;;4989470;28;24795;-50
2021/08/07 08:19:11;;;;;;;1.30;1.20;;;;;;;;;;4988171;28;24435;-49
2021/08/07 08:21:36;;;;;;;1.13;1.03;;;;;;;;;;4989382;28;24488;-50
2021/08/07 08:24:01;;;;;;;1.23;1.13;;;;;;;;;;4988748;28;24488;-49
2021/08/07 08:26:26;;;;;;;1.50;1.40;;;;;;;;;;4989128;28;24471;-48
2021/08/07 08:28:51;;;;;;;1.25;1.15;;;;;;;;;;4988230;28;25006;-49
2021/08/07 08:31:16;;;;;;;0.97;0.93;;;;;;;;;;4988209;28;25001;-48
2021/08/07 08:33:42;;;;;;;1.40;1.10;;;;;;;;;;4988947;28;24405;-48
2021/08/07 08:36:07;;;;;;;1.20;1.10;;;;;;;;;;4988575;28;24381;-48
2021/08/07 08:38:32;;;;;;;1.90;1.40;;;;;;;;;;4988594;28;24955;-49
2021/08/07 08:40:58;;;;;;;1.30;0.90;;;;;;;;;;4988311;28;24428;-49
2021/08/07 08:43:23;;;;;;;1.70;1.10;;;;;;;;;;4988792;28;24413;-49
2021/08/07 08:45:48;;;;;;;0.80;0.80;;;;;;;;;;4988277;28;24409;-49
2021/08/07 08:48:15;;;;;;;0.90;0.90;;;;;;;;;;4988135;28;25029;-49
2021/08/07 08:50:40;;;;;;;1.05;1.00;;;;;;;;;;4988713;28;24378;-50
2021/08/07 08:53:06;;;;;;;1.20;1.10;;;;;;;;;;4988194;28;24514;-48
2021/08/07 08:55:31;;;;;;;1.25;1.10;;;;;;;;;;4988661;28;24413;-50
2021/08/07 08:57:56;;;;;;;1.07;0.87;;;;;;;;;;4988287;28;24433;-48
2021/08/07 09:00:21;;;;;;;0.90;0.90;;;;;;;;;;4988238;28;24818;-48
2021/08/07 09:02:47;;;;;;;1.00;0.90;;;;;;;;;;4988165;28;24448;-48
2021/08/07 09:05:13;;;;;;;0.90;0.83;;;;;;;;;;4988341;28;24421;-49
2021/08/07 09:07:39;;;;;;;1.27;1.17;;;;;;;;;;4988557;28;24408;-48
2021/08/07 09:10:04;;;;;;;1.40;1.00;;;;;;;;;;4988113;28;24417;-49
2021/08/07 09:12:40;;;;;;;1.50;1.07;;;;;;;;;;4988097;28;24420;-49
2021/08/07 09:15:22;;;;;;;0.80;0.80;;;;;;;;;;4951615;28;24446;-49
2021/08/07 09:17:47;;;;;;;1.10;0.90;;;;;;;;;;4968976;28;24496;-49
2021/08/07 09:20:12;;;;;;;1.10;1.10;;;;;;;;;;4968664;28;24504;-49
2021/08/07 09:22:42;;;;;;;0.90;0.90;;;;;;;;;;4969893;28;24416;-50
2021/08/07 09:25:08;;;;;;;0.90;0.90;;;;;;;;;;4972312;28;24425;-50
2021/08/07 09:27:39;;;;;;;0.70;0.70;;;;;;;;;;4988147;28;24979;-50
2021/08/07 09:30:25;;;;;;;0.80;0.80;;;;;;;;;;4987568;28;24453;-49
2021/08/07 09:32:51;;;;;;;1.00;0.90;;;;;;;;;;4970952;28;25339;-52
2021/08/07 09:35:28;;;;;;;1.13;1.02;;;;;;;;;;4987593;28;24389;-51
2021/08/07 09:38:12;;;;;;;0.80;0.80;;;;;;;;;;4968552;28;24406;-51
2021/08/07 09:40:42;;;;;;;0.90;0.90;;;;;;;;;;4968755;28;24444;-51
2021/08/07 09:43:08;;;;;;;0.90;0.90;;;;;;;;;;4980297;28;24448;-51
2021/08/07 09:45:33;;;;;;;0.90;0.90;;;;;;;;;;4987348;28;24451;-51
2021/08/07 09:47:59;;;;;;;0.90;0.90;;;;;;;;;;4987903;28;24950;-51
2021/08/07 09:50:26;;;;;;;1.20;0.90;;;;;;;;;;4987461;28;24439;-52
2021/08/07 09:52:51;;;;;;;0.90;0.90;;;;;;;;;;4987392;28;24535;-52
2021/08/07 09:55:16;;;;;;;2.30;1.20;;;;;;;;;;4986253;28;24513;-51
2021/08/07 09:57:42;;;;;;;1.00;0.90;;;;;;;;;;4988579;28;24429;-51
2021/08/07 10:00:07;;;;;;;2.50;0.90;;;;;;;;;;4989590;28;24986;-51
2021/08/07 10:02:35;;;;;;;1.00;0.85;;;;;;;;;;4989862;28;24971;-52
2021/08/07 10:05:00;;;;;;;1.95;1.10;;;;;;;;;;4986864;28;24439;-53
2021/08/07 10:07:26;;;;;;;0.90;0.90;;;;;;;;;;4987188;28;24409;-51
2021/08/07 10:09:52;;;;;;;0.90;0.90;;;;;;;;;;4989754;28;24835;-51
2021/08/07 10:12:17;;;;;;;0.90;0.90;;;;;;;;;;4989592;28;24476;-51
2021/08/07 10:14:42;;;;;;;0.80;0.80;;;;;;;;;;4989362;28;25218;-51
2021/08/07 10:17:09;;;;;;;1.00;0.90;;;;;;;;;;4989621;28;24412;-51
2021/08/07 10:19:35;;;;;;;1.17;0.90;;;;;;;;;;4989105;28;24674;-52
2021/08/07 10:22:01;;;;;;;1.00;0.90;;;;;;;;;;4989974;28;24967;-51
2021/08/07 10:24:27;;;;;;;1.00;0.90;;;;;;;;;;4989267;28;24428;-51
2021/08/07 10:26:53;;;;;;;0.75;0.75;;;;;;;;;;4989203;28;24451;-51
2021/08/07 10:29:23;;;;;;;1.20;1.10;;;;;;;;;;4989033;28;24459;-52
2021/08/07 10:31:49;;;;;;;0.90;0.90;;;;;;;;;;4992294;28;24442;-53
2021/08/07 10:34:14;;;;;;;0.90;0.90;;;;;;;;;;4989379;28;24971;-53
2021/08/07 10:36:40;;;;;;;1.10;1.00;;;;;;;;;;4989177;28;24409;-53
2021/08/07 10:39:06;;;;;;;1.07;1.00;;;;;;;;;;4989136;28;24966;-53
2021/08/07 10:41:32;;;;;;;1.05;0.95;;;;;;;;;;4988881;28;24873;-53
2021/08/07 10:43:58;;;;;;;1.30;1.10;;;;;;;;;;4989382;28;24417;-53
2021/08/07 10:46:24;;;;;;;1.20;0.90;;;;;;;;;;4989140;28;24967;-51
2021/08/07 10:48:50;;;;;;;1.13;0.90;;;;;;;;;;4988760;28;24447;-52
2021/08/07 10:51:18;;;;;;;1.70;0.98;;;;;;;;;;4984529;28;24520;-52
2021/08/07 10:53:43;;;;;;;1.03;0.93;;;;;;;;;;4928752;28;1711250;-53
2021/08/07 10:56:09;;;;;;;1.43;1.10;;;;;;;;;;4990233;28;24448;-53
2021/08/07 10:58:35;;;;;;;0.90;0.73;;;;;;;;;;4989707;28;24428;-53
2021/08/07 11:01:19;;;;;;;0.95;0.93;;;;;;;;;;4990281;28;24467;-53
2021/08/07 11:03:45;;;;;;;1.02;1.02;;;;;;;;;;4990496;28;24420;-53
2021/08/07 11:06:10;;;;;;;1.00;1.00;;;;;;;;;;4990393;28;25103;-52
2021/08/07 11:08:35;;;;;;;0.90;0.90;;;;;;;;;;4988767;28;24535;-52
2021/08/07 11:11:21;;;;;;;1.10;1.00;;;;;;;;;;4989864;28;24417;-52
2021/08/07 11:13:46;;;;;;;1.10;1.00;;;;;;;;;;4989222;28;24961;-53
2021/08/07 11:16:20;;;;;;;1.00;0.90;;;;;;;;;;4986937;28;24421;-51
2021/08/07 11:18:46;;;;;;;0.90;0.90;;;;;;;;;;4989704;28;24405;-52
2021/08/07 11:21:30;;;;;;;0.82;0.82;;;;;;;;;;4989201;28;24772;-53
2021/08/07 11:23:55;;;;;;;1.10;1.00;;;;;;;;;;4988969;28;24413;-52
2021/08/07 11:26:40;;;;;;;1.10;0.90;;;;;;;;;;4981249;28;24420;-52
2021/08/07 11:29:07;;;;;;;1.10;1.00;;;;;;;;;;4975932;28;24540;-52
2021/08/07 11:31:32;;;;;;;1.10;0.93;;;;;;;;;;4986411;28;24480;-52
2021/08/07 11:34:16;;;;;;;1.30;1.00;;;;;;;;;;4986248;28;24823;-52
2021/08/07 11:37:01;;;;;;;1.20;1.00;;;;;;;;;;4989183;28;24409;-53
2021/08/07 11:39:46;;;;;;;1.20;1.10;;;;;;;;;;4978129;28;24476;-52
2021/08/07 11:42:30;;;;;;;1.20;1.10;;;;;;;;;;4977118;28;24456;-54
2021/08/07 11:44:57;;;;;;;1.00;1.00;;;;;;;;;;4990518;28;24962;-53
2021/08/07 11:47:22;;;;;;;1.25;1.20;;;;;;;;;;4987831;28;24563;-52
2021/08/07 11:49:47;;;;;;;1.60;1.50;;;;;;;;;;4978771;28;24524;-52
2021/08/07 11:52:13;;;;;;;1.20;1.10;;;;;;;;;;4988356;28;24558;-53
2021/08/07 11:54:38;;;;;;;0.90;0.90;;;;;;;;;;4994324;28;24771;-52
2021/08/07 11:57:20;;;;;;;1.10;1.00;;;;;;;;;;4989361;28;24974;-54
2021/08/07 11:59:45;;;;;;;1.10;0.80;;;;;;;;;;4989727;28;24499;-52
2021/08/07 12:02:14;;;;;;;1.10;0.98;;;;;;;;;;4973038;28;24461;-51
2021/08/07 12:04:39;;;;;;;1.30;1.20;;;;;;;;;;4984709;28;24888;-50
2021/08/07 12:07:08;;;;;;;0.90;0.90;;;;;;;;;;4985832;28;24413;-52
2021/08/07 12:09:34;;;;;;;1.20;1.10;;;;;;;;;;4975119;28;24626;-51
2021/08/07 12:12:02;;;;;;;1.40;1.30;;;;;;;;;;4988950;28;24997;-51
2021/08/07 12:14:27;;;;;;;1.40;1.30;;;;;;;;;;4987265;28;24495;-51
2021/08/07 12:16:53;;;;;;;1.53;1.40;;;;;;;;;;4988462;28;24436;-51
2021/08/07 12:19:20;;;;;;;1.63;1.27;;;;;;;;;;4978327;28;24417;-52
2021/08/07 12:21:46;;;;;;;1.48;1.20;;;;;;;;;;4988712;28;24452;-52
2021/08/07 12:24:12;;;;;;;1.33;1.23;;;;;;;;;;4988463;28;24417;-52
2021/08/07 12:26:39;;;;;;;1.40;1.30;;;;;;;;;;4985580;28;24513;-53
2021/08/07 12:29:05;;;;;;;1.10;1.10;;;;;;;;;;4985825;28;24580;-50
2021/08/07 12:31:41;;;;;;;1.58;1.10;;;;;;;;;;4988455;28;25158;-51
2021/08/07 12:34:10;;;;;;;1.60;1.40;;;;;;;;;;4989193;28;24421;-51
2021/08/07 12:36:36;;;;;;;1.40;1.30;;;;;;;;;;4988871;28;24420;-51
2021/08/07 12:39:01;;;;;;;1.52;1.30;;;;;;;;;;4984602;28;24409;-50
2021/08/07 12:41:27;;;;;;;1.30;1.20;;;;;;;;;;4987847;28;24428;-52
2021/08/07 12:43:52;;;;;;;1.50;1.30;;;;;;;;;;4988040;28;24529;-51
2021/08/07 12:46:19;;;;;;;1.40;1.30;;;;;;;;;;4986113;28;24460;-51
2021/08/07 12:48:45;;;;;;;1.60;1.50;;;;;;;;;;4985996;28;25002;-52
2021/08/07 12:51:11;;;;;;;1.50;1.40;;;;;;;;;;4980834;28;24523;-50
2021/08/07 12:53:43;;;;;;;1.20;1.20;;;;;;;;;;4983251;28;25038;-51
2021/08/07 12:56:09;;;;;;;2.40;1.52;;;;;;;;;;4987939;28;24410;-51
2021/08/07 12:58:34;;;;;;;1.40;1.30;;;;;;;;;;4988407;28;24922;-51
2021/08/07 13:01:13;;;;;;;1.47;1.37;;;;;;;;;;4988484;28;24420;-52
2021/08/07 13:03:51;;;;;;;1.80;1.70;;;;;;;;;;4980343;28;24571;-51
2021/08/07 13:06:16;;;;;;;1.80;1.70;;;;;;;;;;4982233;28;24500;-52
2021/08/07 13:08:42;;;;;;;1.50;1.40;;;;;;;;;;4980632;28;25040;-52
2021/08/07 13:11:23;;;;;;;1.70;1.60;;;;;;;;;;4961511;28;24405;-52
2021/08/07 13:13:53;;;;;;;2.00;1.90;;;;;;;;;;4980151;28;24588;-52
2021/08/07 13:16:37;;;;;;;1.83;1.60;;;;;;;;;;4986077;28;24497;-52
2021/08/07 13:19:12;;;;;;;1.77;1.67;;;;;;;;;;4976196;28;24421;-52
2021/08/07 13:21:37;;;;;;;1.60;1.50;;;;;;;;;;4971450;28;24428;-50
2021/08/07 13:24:02;;;;;;;1.70;1.60;;;;;;;;;;4980898;28;24416;-51
2021/08/07 13:26:27;;;;;;;2.70;1.90;;;;;;;;;;4987533;28;24449;-51
2021/08/07 13:28:52;;;;;;;1.80;1.70;;;;;;;;;;4971560;28;24517;-51
2021/08/07 13:31:30;;;;;;;1.40;1.30;;;;;;;;;;4975631;28;24452;-51
2021/08/07 13:33:56;;;;;;;1.40;1.30;;;;;;;;;;4979786;28;24509;-51
2021/08/07 13:36:21;;;;;;;1.70;1.60;;;;;;;;;;4987707;28;24484;-51
2021/08/07 13:38:46;;;;;;;1.90;1.80;;;;;;;;;;4987711;28;24934;-51
2021/08/07 13:41:13;;;;;;;1.65;1.55;;;;;;;;;;4987576;28;24997;-52
2021/08/07 13:43:38;;;;;;;1.95;1.80;;;;;;;;;;4987790;28;24389;-51
2021/08/07 13:46:05;;;;;;;1.70;1.60;;;;;;;;;;4987718;28;24411;-51
2021/08/07 13:48:30;;;;;;;1.75;1.65;;;;;;;;;;4987398;28;24974;-52
2021/08/07 13:50:55;;;;;;;2.40;2.20;;;;;;;;;;4987539;28;24401;-51
2021/08/07 13:53:20;;;;;;;1.60;1.50;;;;;;;;;;4987637;28;24449;-51
2021/08/07 13:55:46;;;;;;;1.70;1.60;;;;;;;;;;4987911;28;24401;-51
2021/08/07 13:58:11;;;;;;;1.95;1.70;;;;;;;;;;4987852;28;24437;-51
2021/08/07 14:00:36;;;;;;;1.45;1.35;;;;;;;;;;4987211;28;24408;-52
2021/08/07 14:03:01;;;;;;;1.70;1.60;;;;;;;;;;4987740;28;24405;-51
2021/08/07 14:05:27;;;;;;;1.80;1.70;;;;;;;;;;4987851;28;24841;-50
2021/08/07 14:07:52;;;;;;;1.85;1.75;;;;;;;;;;4987606;28;24401;-51
2021/08/07 14:10:17;;;;;;;2.00;1.80;;;;;;;;;;4987249;28;24507;-52
2021/08/07 14:12:42;;;;;;;2.20;1.90;;;;;;;;;;4987633;28;24401;-52
2021/08/07 14:15:08;;;;;;;2.20;2.00;;;;;;;;;;4987516;28;24541;-51
2021/08/07 14:17:33;;;;;;;2.30;2.10;;;;;;;;;;4987294;28;24419;-51
2021/08/07 14:19:58;;;;;;;2.47;1.90;;;;;;;;;;4987478;28;25086;-52
2021/08/07 14:22:24;;;;;;;2.40;1.95;;;;;;;;;;4987477;28;24444;-51
2021/08/07 14:24:49;;;;;;;2.83;2.10;;;;;;;;;;4987201;28;24385;-51
2021/08/07 14:27:15;;;;;;;1.77;1.67;;;;;;;;;;4987548;28;24476;-51
2021/08/07 14:29:40;;;;;;;3.80;1.88;;;;;;;;;;4987105;28;24420;-51
2021/08/07 14:32:05;;;;;;;1.70;1.60;;;;;;;;;;4987548;28;24405;-51
2021/08/07 14:34:31;;;;;;;1.70;1.60;;;;;;;;;;4987431;28;24508;-52
2021/08/07 14:36:57;;;;;;;2.50;1.70;;;;;;;;;;4987300;28;24433;-51
2021/08/07 14:39:22;;;;;;;1.70;1.60;;;;;;;;;;4987136;28;24480;-52